Babitonga — A8CO2 — position and weather

sailwx.info

Track history (hours):
 
Tides and Currents Weather Stations Pressure Air Temp Water Temp Dewpoint Dewpoint Depression Visibility Wind Speed Wind Dir Waves Ship Positions

Babitonga

Last reported at 2014-Oct-31 02:32 UTC. Time now 2014-Nov-01 01:16 UTC.
Position S 25°57' E 153°49'.

Length 225 m; beam 32.3 m; draft 13 m.

Type: Cargo ship. MMSI: 636090672.

Date/timePositionNaut miles runAvg speedWind from/ knotsBaromVisibWave heightAir tempDewpointWater temp
2014-Oct-31 02:32S 25°57' E 153°49'10 8.5
2014-Oct-31 01:20S 26°07' E 153°47'8 9.7
2014-Oct-31 00:28S 26°16' E 153°45'9 9.9
2014-Oct-30 23:31S 26°25' E 153°43'1010.3
2014-Oct-30 22:31S 26°35' E 153°41'1110.3
2014-Oct-30 21:27S 26°46' E 153°40'910.3
2014-Oct-30 20:32S 26°55' E 153°40'9 9.6
2014-Oct-30 19:33S 27°05' E 153°41'8 8.4
2014-Oct-30 18:33S 27°13' E 153°42'8 7.8
2014-Oct-30 17:33S 27°21' E 153°44'8 7.5
2014-Oct-30 16:33S 27°28' E 153°45'7 7.3
2014-Oct-30 15:33S 27°35' E 153°46'7 7.1
2014-Oct-30 14:33S 27°42' E 153°47'7 6.9
2014-Oct-30 13:33S 27°49' E 153°47'7 6.8
2014-Oct-30 12:32S 27°56' E 153°49'9 6.8
2014-Oct-30 11:14S 28°05' E 153°49'5 6.7
2014-Oct-30 10:33S 28°09' E 153°49'272 8.5
2014-Oct-29 02:33S 32°35' E 152°39'9 8.8
2014-Oct-29 01:33S 32°40' E 152°31'9 8.8
2014-Oct-29 00:33S 32°46' E 152°23'9 8.9
2014-Oct-28 23:33S 32°52' E 152°15'9 9.2
2014-Oct-28 22:33S 32°53' E 152°04'10 9.9
2014-Oct-28 21:33S 32°56' E 151°53'5 5.3
2014-Oct-28 20:32S 32°55' E 151°46'2 1.4
2014-Oct-28 19:16S 32°53' E 151°45'0 0.0
2014-Oct-28 18:16S 32°53' E 151°45'0 0.0
2014-Oct-28 17:28S 32°53' E 151°45'0 0.0
2014-Oct-28 15:16S 32°53' E 151°45'0 0.0
2014-Oct-28 14:04S 32°53' E 151°45'0 0.0
2014-Oct-28 13:28S 32°53' E 151°45'0 0.0
2014-Oct-28 12:31S 32°53' E 151°45'0 0.0
2014-Oct-28 11:28S 32°53' E 151°45'0 0.0
2014-Oct-28 10:22S 32°53' E 151°45'0 0.0
2014-Oct-28 09:31S 32°53' E 151°45'0 0.0
2014-Oct-28 08:28S 32°53' E 151°45'0 0.0
2014-Oct-28 07:28S 32°53' E 151°45'0 0.0
2014-Oct-28 06:28S 32°53' E 151°45'0 0.0
2014-Oct-28 05:28S 32°53' E 151°45'0 0.1
2014-Oct-28 04:29S 32°53' E 151°45'0 0.1
2014-Oct-28 03:33S 32°53' E 151°45'0 0.0
2014-Oct-28 02:33S 32°53' E 151°45'0 0.0
2014-Oct-28 01:33S 32°53' E 151°45'0 0.0
2014-Oct-28 00:33S 32°53' E 151°45'0 0.0
2014-Oct-27 23:33S 32°53' E 151°45'0 0.0
2014-Oct-27 22:33S 32°53' E 151°45'0 0.0
2014-Oct-27 21:33S 32°53' E 151°45'0 0.0
2014-Oct-27 20:33S 32°53' E 151°45'0 0.0
2014-Oct-27 19:33S 32°53' E 151°45'0 0.0
2014-Oct-27 18:33S 32°53' E 151°45'0 0.1
2014-Oct-27 17:33S 32°53' E 151°45'0 0.0
2014-Oct-27 16:33S 32°53' E 151°45'0 0.1
2014-Oct-27 15:33S 32°53' E 151°45'0 0.0
2014-Oct-27 14:33S 32°53' E 151°45'3 2.8
2014-Oct-27 13:33S 32°55' E 151°48'7 6.6
2014-Oct-27 12:33S 33°00' E 151°52'7 7.5
2014-Oct-27 11:33S 33°07' E 151°55'9 9.3
2014-Oct-27 10:33S 33°16' E 151°60'1 1.2
2014-Oct-27 09:33S 33°16' E 151°58'2 1.7
2014-Oct-27 08:33S 33°14' E 151°59'2 2.1
2014-Oct-27 07:33S 33°13' E 152°00'2 2.3
2014-Oct-27 06:33S 33°11' E 152°02'2 2.1
2014-Oct-27 05:33S 33°09' E 152°04'2 2.0
2014-Oct-27 04:33S 33°08' E 152°06'2 2.1
2014-Oct-27 03:33S 33°07' E 152°08'2 1.9
2014-Oct-27 02:33S 33°06' E 152°10'2 1.7
2014-Oct-27 01:33S 33°05' E 152°11'1 1.4
2014-Oct-27 00:33S 33°04' E 152°13'1 1.4
2014-Oct-26 23:33S 33°04' E 152°14'1 1.1
2014-Oct-26 22:33S 33°03' E 152°16'1 1.1
2014-Oct-26 21:33S 33°03' E 152°17'1 1.1
2014-Oct-26 20:33S 33°02' E 152°18'1 0.9
2014-Oct-26 19:33S 33°02' E 152°19'1 1.0
2014-Oct-26 18:33S 33°01' E 152°20'1 1.0
2014-Oct-26 17:33S 33°01' E 152°21'1 1.0
2014-Oct-26 16:33S 33°01' E 152°22'1 1.1
2014-Oct-26 15:33S 33°01' E 152°23'2 1.5
2014-Oct-26 14:32S 33°01' E 152°25'2 1.6
2014-Oct-26 13:19S 33°01' E 152°28'1 1.7
2014-Oct-26 12:32S 33°01' E 152°29'2 1.6
2014-Oct-26 11:33S 33°01' E 152°31'2 1.6
2014-Oct-26 10:32S 33°01' E 152°33'3 1.5
2014-Oct-26 08:33S 32°59' E 152°36'0 0.3
2014-Oct-26 07:33S 32°59' E 152°35'9 8.7
2014-Oct-26 06:33S 33°05' E 152°29'9 9.3
2014-Oct-26 05:33S 33°13' E 152°23'9 9.3
2014-Oct-26 04:33S 33°21' E 152°18'9 9.4
2014-Oct-26 03:33S 33°30' E 152°12'8 8.4
2014-Oct-26 02:33S 33°37' E 152°07'2 2.0
2014-Oct-26 01:33S 33°35' E 152°07'4 2.2
2014-Oct-25 23:30S 33°31' E 152°09'2 2.1
2014-Oct-25 22:33S 33°29' E 152°09'2 2.1
2014-Oct-25 21:33S 33°27' E 152°10'2 2.3
2014-Oct-25 20:33S 33°24' E 152°10'3 2.4
2014-Oct-25 19:22S 33°21' E 152°10'2 2.3
2014-Oct-25 18:33S 33°20' E 152°11'2 2.0
2014-Oct-25 17:33S 33°18' E 152°12'2 2.0
2014-Oct-25 16:33S 33°16' E 152°14'2 2.3
2014-Oct-25 15:33S 33°15' E 152°16'2 1.4
2014-Oct-25 14:31S 33°13' E 152°16'1 1.4
2014-Oct-25 13:33S 33°12' E 152°17'2 2.3
2014-Oct-25 12:33S 33°10' E 152°19'2 2.3
2014-Oct-25 11:33S 33°09' E 152°21'2 2.4
2014-Oct-25 10:32S 33°07' E 152°23'2 2.3
2014-Oct-25 09:30S 33°06' E 152°25'2 2.2
2014-Oct-25 08:33S 33°05' E 152°27'2 2.4
2014-Oct-25 07:30S 33°04' E 152°30'2 1.6
2014-Oct-25 06:33S 33°03' E 152°32'8 8.4
2014-Oct-25 05:33S 33°11' E 152°29'1010.3
2014-Oct-25 04:33S 33°21' E 152°25'1010.3
2014-Oct-25 03:33S 33°31' E 152°21'1010.3
2014-Oct-25 02:33S 33°40' E 152°17'1 0.6
2014-Oct-25 01:33S 33°41' E 152°17'23 2.5
2014-Oct-24 16:26S 33°19' E 152°25'3 3.4
2014-Oct-24 15:27S 33°16' E 152°26'4 3.4
2014-Oct-24 14:26S 33°12' E 152°27'3 3.4
2014-Oct-24 13:33S 33°10' E 152°28'4 3.7
2014-Oct-24 12:32S 33°06' E 152°29'2 2.0
2014-Oct-24 11:29S 33°04' E 152°28'3 3.1
2014-Oct-24 10:33S 33°05' E 152°25'4 4.1
2014-Oct-24 09:32S 33°03' E 152°29'5 5.2
2014-Oct-24 08:33S 33°08' E 152°27'7 6.7
2014-Oct-24 07:33S 33°14' E 152°24'16 7.2
2014-Oct-24 05:17S 33°29' E 152°15'16 1.0
2014-Oct-23 13:10S 33°14' E 152°22'2 2.7
2014-Oct-23 12:31S 33°12' E 152°23'3 2.7
2014-Oct-23 11:33S 33°10' E 152°25'3 2.7
2014-Oct-23 10:33S 33°08' E 152°27'3 2.6
2014-Oct-23 09:29S 33°07' E 152°24'7 7.4
2014-Oct-23 08:32S 33°09' E 152°16'8 7.9
2014-Oct-23 07:33S 33°10' E 152°07'2 1.9
2014-Oct-23 06:33S 33°10' E 152°09'2 2.3
2014-Oct-23 05:33S 33°09' E 152°11'2 2.2
2014-Oct-23 04:33S 33°08' E 152°14'2 2.1
2014-Oct-23 03:33S 33°09' E 152°16'9 9.0
2014-Oct-23 02:33S 33°18' E 152°14'9 9.1
2014-Oct-23 01:33S 33°27' E 152°12'9 8.9
2014-Oct-23 00:29S 33°36' E 152°10'8 8.9
2014-Oct-22 23:34S 33°44' E 152°08'9 8.8
2014-Oct-22 22:32S 33°53' E 152°06'9 8.5
2014-Oct-22 21:30S 34°02' E 152°03'51 1.3
2014-Oct-21 06:33S 33°11' E 152°10'9 9.1
2014-Oct-21 05:33S 33°02' E 152°08'4 3.6
2014-Oct-21 04:33S 32°59' E 152°07'1 1.5
2014-Oct-21 03:33S 32°59' E 152°09'1 1.4
2014-Oct-21 02:33S 33°00' E 152°10'  
Track history (hours):
 
Tides and Currents Weather Stations Pressure Air Temp Water Temp Dewpoint Dewpoint Depression Visibility Wind Speed Wind Dir Waves Ship Positions

Babitonga

Last reported at 2014-Oct-31 02:32 UTC. Time now 2014-Nov-01 01:16 UTC.
Position S 25°57' E 153°49'.

Length 225 m; beam 32.3 m; draft 13 m.

Type: Cargo ship. MMSI: 636090672.

Date/timePositionNaut miles runAvg speedWind from/ knotsBaromVisibWave heightAir tempDewpointWater temp
2014-Oct-31 02:32S 25°57' E 153°49'10 8.5
2014-Oct-31 01:20S 26°07' E 153°47'8 9.7
2014-Oct-31 00:28S 26°16' E 153°45'9 9.9
2014-Oct-30 23:31S 26°25' E 153°43'1010.3
2014-Oct-30 22:31S 26°35' E 153°41'1110.3
2014-Oct-30 21:27S 26°46' E 153°40'910.3
2014-Oct-30 20:32S 26°55' E 153°40'9 9.6
2014-Oct-30 19:33S 27°05' E 153°41'8 8.4
2014-Oct-30 18:33S 27°13' E 153°42'8 7.8
2014-Oct-30 17:33S 27°21' E 153°44'8 7.5
2014-Oct-30 16:33S 27°28' E 153°45'7 7.3
2014-Oct-30 15:33S 27°35' E 153°46'7 7.1
2014-Oct-30 14:33S 27°42' E 153°47'7 6.9
2014-Oct-30 13:33S 27°49' E 153°47'7 6.8
2014-Oct-30 12:32S 27°56' E 153°49'9 6.8
2014-Oct-30 11:14S 28°05' E 153°49'5 6.7
2014-Oct-30 10:33S 28°09' E 153°49'272 8.5
2014-Oct-29 02:33S 32°35' E 152°39'9 8.8
2014-Oct-29 01:33S 32°40' E 152°31'9 8.8
2014-Oct-29 00:33S 32°46' E 152°23'9 8.9
2014-Oct-28 23:33S 32°52' E 152°15'9 9.2
2014-Oct-28 22:33S 32°53' E 152°04'10 9.9
2014-Oct-28 21:33S 32°56' E 151°53'5 5.3
2014-Oct-28 20:32S 32°55' E 151°46'2 1.4
2014-Oct-28 19:16S 32°53' E 151°45'0 0.0
2014-Oct-28 18:16S 32°53' E 151°45'0 0.0
2014-Oct-28 17:28S 32°53' E 151°45'0 0.0
2014-Oct-28 15:16S 32°53' E 151°45'0 0.0
2014-Oct-28 14:04S 32°53' E 151°45'0 0.0
2014-Oct-28 13:28S 32°53' E 151°45'0 0.0
2014-Oct-28 12:31S 32°53' E 151°45'0 0.0
2014-Oct-28 11:28S 32°53' E 151°45'0 0.0
2014-Oct-28 10:22S 32°53' E 151°45'0 0.0
2014-Oct-28 09:31S 32°53' E 151°45'0 0.0
2014-Oct-28 08:28S 32°53' E 151°45'0 0.0
2014-Oct-28 07:28S 32°53' E 151°45'0 0.0
2014-Oct-28 06:28S 32°53' E 151°45'0 0.0
2014-Oct-28 05:28S 32°53' E 151°45'0 0.1
2014-Oct-28 04:29S 32°53' E 151°45'0 0.1
2014-Oct-28 03:33S 32°53' E 151°45'0 0.0
2014-Oct-28 02:33S 32°53' E 151°45'0 0.0
2014-Oct-28 01:33S 32°53' E 151°45'0 0.0
2014-Oct-28 00:33S 32°53' E 151°45'0 0.0
2014-Oct-27 23:33S 32°53' E 151°45'0 0.0
2014-Oct-27 22:33S 32°53' E 151°45'0 0.0
2014-Oct-27 21:33S 32°53' E 151°45'0 0.0
2014-Oct-27 20:33S 32°53' E 151°45'0 0.0
2014-Oct-27 19:33S 32°53' E 151°45'0 0.0
2014-Oct-27 18:33S 32°53' E 151°45'0 0.1
2014-Oct-27 17:33S 32°53' E 151°45'0 0.0
2014-Oct-27 16:33S 32°53' E 151°45'0 0.1
2014-Oct-27 15:33S 32°53' E 151°45'0 0.0
2014-Oct-27 14:33S 32°53' E 151°45'3 2.8
2014-Oct-27 13:33S 32°55' E 151°48'7 6.6
2014-Oct-27 12:33S 33°00' E 151°52'7 7.5
2014-Oct-27 11:33S 33°07' E 151°55'9 9.3
2014-Oct-27 10:33S 33°16' E 151°60'1 1.2
2014-Oct-27 09:33S 33°16' E 151°58'2 1.7
2014-Oct-27 08:33S 33°14' E 151°59'2 2.1
2014-Oct-27 07:33S 33°13' E 152°00'2 2.3
2014-Oct-27 06:33S 33°11' E 152°02'2 2.1
2014-Oct-27 05:33S 33°09' E 152°04'2 2.0
2014-Oct-27 04:33S 33°08' E 152°06'2 2.1
2014-Oct-27 03:33S 33°07' E 152°08'2 1.9
2014-Oct-27 02:33S 33°06' E 152°10'2 1.7
2014-Oct-27 01:33S 33°05' E 152°11'1 1.4
2014-Oct-27 00:33S 33°04' E 152°13'1 1.4
2014-Oct-26 23:33S 33°04' E 152°14'1 1.1
2014-Oct-26 22:33S 33°03' E 152°16'1 1.1
2014-Oct-26 21:33S 33°03' E 152°17'1 1.1
2014-Oct-26 20:33S 33°02' E 152°18'1 0.9
2014-Oct-26 19:33S 33°02' E 152°19'1 1.0
2014-Oct-26 18:33S 33°01' E 152°20'1 1.0
2014-Oct-26 17:33S 33°01' E 152°21'1 1.0
2014-Oct-26 16:33S 33°01' E 152°22'1 1.1
2014-Oct-26 15:33S 33°01' E 152°23'2 1.5
2014-Oct-26 14:32S 33°01' E 152°25'2 1.6
2014-Oct-26 13:19S 33°01' E 152°28'1 1.7
2014-Oct-26 12:32S 33°01' E 152°29'2 1.6
2014-Oct-26 11:33S 33°01' E 152°31'2 1.6
2014-Oct-26 10:32S 33°01' E 152°33'3 1.5
2014-Oct-26 08:33S 32°59' E 152°36'0 0.3
2014-Oct-26 07:33S 32°59' E 152°35'9 8.7
2014-Oct-26 06:33S 33°05' E 152°29'9 9.3
2014-Oct-26 05:33S 33°13' E 152°23'9 9.3
2014-Oct-26 04:33S 33°21' E 152°18'9 9.4
2014-Oct-26 03:33S 33°30' E 152°12'8 8.4
2014-Oct-26 02:33S 33°37' E 152°07'2 2.0
2014-Oct-26 01:33S 33°35' E 152°07'4 2.2
2014-Oct-25 23:30S 33°31' E 152°09'2 2.1
2014-Oct-25 22:33S 33°29' E 152°09'2 2.1
2014-Oct-25 21:33S 33°27' E 152°10'2 2.3
2014-Oct-25 20:33S 33°24' E 152°10'3 2.4
2014-Oct-25 19:22S 33°21' E 152°10'2 2.3
2014-Oct-25 18:33S 33°20' E 152°11'2 2.0
2014-Oct-25 17:33S 33°18' E 152°12'2 2.0
2014-Oct-25 16:33S 33°16' E 152°14'2 2.3
2014-Oct-25 15:33S 33°15' E 152°16'2 1.4
2014-Oct-25 14:31S 33°13' E 152°16'1 1.4
2014-Oct-25 13:33S 33°12' E 152°17'2 2.3
2014-Oct-25 12:33S 33°10' E 152°19'2 2.3
2014-Oct-25 11:33S 33°09' E 152°21'2 2.4
2014-Oct-25 10:32S 33°07' E 152°23'2 2.3
2014-Oct-25 09:30S 33°06' E 152°25'2 2.2
2014-Oct-25 08:33S 33°05' E 152°27'2 2.4
2014-Oct-25 07:30S 33°04' E 152°30'2 1.6
2014-Oct-25 06:33S 33°03' E 152°32'8 8.4
2014-Oct-25 05:33S 33°11' E 152°29'1010.3
2014-Oct-25 04:33S 33°21' E 152°25'1010.3
2014-Oct-25 03:33S 33°31' E 152°21'1010.3
2014-Oct-25 02:33S 33°40' E 152°17'1 0.6
2014-Oct-25 01:33S 33°41' E 152°17'23 2.5
2014-Oct-24 16:26S 33°19' E 152°25'3 3.4
2014-Oct-24 15:27S 33°16' E 152°26'4 3.4
2014-Oct-24 14:26S 33°12' E 152°27'3 3.4
2014-Oct-24 13:33S 33°10' E 152°28'4 3.7
2014-Oct-24 12:32S 33°06' E 152°29'2 2.0
2014-Oct-24 11:29S 33°04' E 152°28'3 3.1
2014-Oct-24 10:33S 33°05' E 152°25'4 4.1
2014-Oct-24 09:32S 33°03' E 152°29'5 5.2
2014-Oct-24 08:33S 33°08' E 152°27'7 6.7
2014-Oct-24 07:33S 33°14' E 152°24'16 7.2
2014-Oct-24 05:17S 33°29' E 152°15'16 1.0
2014-Oct-23 13:10S 33°14' E 152°22'2 2.7
2014-Oct-23 12:31S 33°12' E 152°23'3 2.7
2014-Oct-23 11:33S 33°10' E 152°25'3 2.7
2014-Oct-23 10:33S 33°08' E 152°27'3 2.6
2014-Oct-23 09:29S 33°07' E 152°24'7 7.4
2014-Oct-23 08:32S 33°09' E 152°16'8 7.9
2014-Oct-23 07:33S 33°10' E 152°07'2 1.9
2014-Oct-23 06:33S 33°10' E 152°09'2 2.3
2014-Oct-23 05:33S 33°09' E 152°11'2 2.2
2014-Oct-23 04:33S 33°08' E 152°14'2 2.1
2014-Oct-23 03:33S 33°09' E 152°16'9 9.0
2014-Oct-23 02:33S 33°18' E 152°14'9 9.1
2014-Oct-23 01:33S 33°27' E 152°12'9 8.9
2014-Oct-23 00:29S 33°36' E 152°10'8 8.9
2014-Oct-22 23:34S 33°44' E 152°08'9 8.8
2014-Oct-22 22:32S 33°53' E 152°06'9 8.5
2014-Oct-22 21:30S 34°02' E 152°03'51 1.3
2014-Oct-21 06:33S 33°11' E 152°10'9 9.1
2014-Oct-21 05:33S 33°02' E 152°08'4 3.6
2014-Oct-21 04:33S 32°59' E 152°07'1 1.5
2014-Oct-21 03:33S 32°59' E 152°09'1 1.4
2014-Oct-21 02:33S 33°00' E 152°10'  

Dump ship's entire track history